sensor_id;sensor_type;location;lat;lon;timestamp;P1;durP1;ratioP1;P2;durP2;ratioP2
28007;SDS011;15333;50.010;20.020;2022-08-19T00:00:44;114.32;;;84.82;;
28007;SDS011;15333;50.010;20.020;2022-08-19T00:03:45;34.45;;;27.48;;
28007;SDS011;15333;50.010;20.020;2022-08-19T00:06:46;35.03;;;27.63;;
28007;SDS011;15333;50.010;20.020;2022-08-19T00:09:48;35.35;;;28.63;;
28007;SDS011;15333;50.010;20.020;2022-08-19T00:12:49;34.38;;;29.00;;
28007;SDS011;15333;50.010;20.020;2022-08-19T00:15:50;38.13;;;29.65;;
28007;SDS011;15333;50.010;20.020;2022-08-19T00:18:51;40.25;;;30.48;;
28007;SDS011;15333;50.010;20.020;2022-08-19T00:21:53;38.75;;;32.03;;
28007;SDS011;15333;50.010;20.020;2022-08-19T00:24:56;40.53;;;30.25;;
28007;SDS011;15333;50.010;20.020;2022-08-19T00:27:57;38.33;;;31.23;;
28007;SDS011;15333;50.010;20.020;2022-08-19T00:30:59;38.10;;;32.10;;
28007;SDS011;15333;50.010;20.020;2022-08-19T00:34:00;38.63;;;31.10;;
28007;SDS011;15333;50.010;20.020;2022-08-19T00:37:01;40.03;;;32.97;;
28007;SDS011;15333;50.010;20.020;2022-08-19T00:40:03;40.20;;;33.15;;
28007;SDS011;15333;50.010;20.020;2022-08-19T00:43:10;37.90;;;31.55;;
28007;SDS011;15333;50.010;20.020;2022-08-19T00:46:13;43.00;;;32.47;;
28007;SDS011;15333;50.010;20.020;2022-08-19T00:49:19;43.20;;;33.10;;
28007;SDS011;15333;50.010;20.020;2022-08-19T00:52:25;43.88;;;34.63;;
28007;SDS011;15333;50.010;20.020;2022-08-19T00:55:30;39.92;;;34.13;;
28007;SDS011;15333;50.010;20.020;2022-08-19T00:58:33;43.80;;;32.30;;
28007;SDS011;15333;50.010;20.020;2022-08-19T01:01:36;42.05;;;36.25;;
28007;SDS011;15333;50.010;20.020;2022-08-19T01:04:42;44.35;;;35.55;;
28007;SDS011;15333;50.010;20.020;2022-08-19T01:07:43;42.55;;;35.25;;
28007;SDS011;15333;50.010;20.020;2022-08-19T01:10:47;46.85;;;35.13;;
28007;SDS011;15333;50.010;20.020;2022-08-19T01:13:50;48.10;;;37.40;;
28007;SDS011;15333;50.010;20.020;2022-08-19T01:16:53;42.15;;;35.38;;
28007;SDS011;15333;50.010;20.020;2022-08-19T01:19:57;43.25;;;34.75;;
28007;SDS011;15333;50.010;20.020;2022-08-19T01:22:58;39.97;;;34.95;;
28007;SDS011;15333;50.010;20.020;2022-08-19T01:25:59;41.20;;;34.88;;
28007;SDS011;15333;50.010;20.020;2022-08-19T01:29:01;44.40;;;34.35;;
28007;SDS011;15333;50.010;20.020;2022-08-19T01:32:01;43.28;;;35.08;;
28007;SDS011;15333;50.010;20.020;2022-08-19T01:35:03;46.33;;;36.00;;
28007;SDS011;15333;50.010;20.020;2022-08-19T01:38:07;43.38;;;32.47;;
28007;SDS011;15333;50.010;20.020;2022-08-19T01:41:11;40.88;;;32.35;;
28007;SDS011;15333;50.010;20.020;2022-08-19T01:44:12;41.70;;;34.53;;
28007;SDS011;15333;50.010;20.020;2022-08-19T01:47:13;49.65;;;34.67;;
28007;SDS011;15333;50.010;20.020;2022-08-19T01:50:14;43.92;;;35.75;;
28007;SDS011;15333;50.010;20.020;2022-08-19T01:53:15;44.92;;;36.80;;
28007;SDS011;15333;50.010;20.020;2022-08-19T01:56:17;49.00;;;36.97;;
28007;SDS011;15333;50.010;20.020;2022-08-19T01:59:20;51.85;;;37.80;;
28007;SDS011;15333;50.010;20.020;2022-08-19T02:02:24;49.53;;;37.55;;
28007;SDS011;15333;50.010;20.020;2022-08-19T02:05:25;49.80;;;40.13;;
28007;SDS011;15333;50.010;20.020;2022-08-19T02:08:26;58.38;;;42.20;;
28007;SDS011;15333;50.010;20.020;2022-08-19T02:11:29;50.05;;;40.55;;
28007;SDS011;15333;50.010;20.020;2022-08-19T02:14:34;49.80;;;39.35;;
28007;SDS011;15333;50.010;20.020;2022-08-19T02:17:36;46.70;;;36.10;;
28007;SDS011;15333;50.010;20.020;2022-08-19T02:20:38;52.95;;;40.78;;
28007;SDS011;15333;50.010;20.020;2022-08-19T02:23:40;49.38;;;41.20;;
28007;SDS011;15333;50.010;20.020;2022-08-19T02:26:41;49.25;;;39.45;;
28007;SDS011;15333;50.010;20.020;2022-08-19T02:29:42;50.38;;;37.00;;
28007;SDS011;15333;50.010;20.020;2022-08-19T02:32:43;53.58;;;40.55;;
28007;SDS011;15333;50.010;20.020;2022-08-19T02:35:44;41.92;;;35.35;;
28007;SDS011;15333;50.010;20.020;2022-08-19T02:38:46;44.97;;;38.03;;
28007;SDS011;15333;50.010;20.020;2022-08-19T02:41:48;46.65;;;39.30;;
28007;SDS011;15333;50.010;20.020;2022-08-19T02:44:50;48.30;;;40.47;;
28007;SDS011;15333;50.010;20.020;2022-08-19T02:47:52;51.03;;;41.05;;
28007;SDS011;15333;50.010;20.020;2022-08-19T02:50:53;55.80;;;42.45;;
28007;SDS011;15333;50.010;20.020;2022-08-19T02:53:55;52.08;;;41.25;;
28007;SDS011;15333;50.010;20.020;2022-08-19T02:56:56;55.95;;;43.92;;
28007;SDS011;15333;50.010;20.020;2022-08-19T02:59:58;51.47;;;42.55;;
28007;SDS011;15333;50.010;20.020;2022-08-19T03:03:00;57.08;;;42.83;;
28007;SDS011;15333;50.010;20.020;2022-08-19T03:06:06;59.85;;;45.25;;
28007;SDS011;15333;50.010;20.020;2022-08-19T03:09:09;54.38;;;43.53;;
28007;SDS011;15333;50.010;20.020;2022-08-19T03:12:10;57.20;;;44.30;;
28007;SDS011;15333;50.010;20.020;2022-08-19T03:15:11;54.10;;;43.47;;
28007;SDS011;15333;50.010;20.020;2022-08-19T03:18:13;52.20;;;41.97;;
28007;SDS011;15333;50.010;20.020;2022-08-19T03:21:16;56.53;;;42.42;;
28007;SDS011;15333;50.010;20.020;2022-08-19T03:24:19;54.63;;;41.28;;
28007;SDS011;15333;50.010;20.020;2022-08-19T03:27:20;52.90;;;40.53;;
28007;SDS011;15333;50.010;20.020;2022-08-19T03:30:21;52.22;;;41.13;;
28007;SDS011;15333;50.010;20.020;2022-08-19T03:33:22;45.92;;;37.38;;
28007;SDS011;15333;50.010;20.020;2022-08-19T03:36:25;47.45;;;36.35;;
28007;SDS011;15333;50.010;20.020;2022-08-19T03:39:27;48.75;;;39.00;;
28007;SDS011;15333;50.010;20.020;2022-08-19T03:42:28;46.65;;;38.45;;
28007;SDS011;15333;50.010;20.020;2022-08-19T03:45:29;52.72;;;40.70;;
28007;SDS011;15333;50.010;20.020;2022-08-19T03:48:31;49.25;;;37.92;;
28007;SDS011;15333;50.010;20.020;2022-08-19T03:51:37;45.30;;;38.17;;
28007;SDS011;15333;50.010;20.020;2022-08-19T03:54:38;52.80;;;39.50;;
28007;SDS011;15333;50.010;20.020;2022-08-19T03:57:39;50.00;;;37.45;;
28007;SDS011;15333;50.010;20.020;2022-08-19T04:00:42;49.97;;;38.28;;
28007;SDS011;15333;50.010;20.020;2022-08-19T04:03:43;48.50;;;38.78;;
28007;SDS011;15333;50.010;20.020;2022-08-19T04:06:46;43.60;;;36.20;;
28007;SDS011;15333;50.010;20.020;2022-08-19T04:09:48;44.58;;;35.97;;
28007;SDS011;15333;50.010;20.020;2022-08-19T04:12:49;46.67;;;36.20;;
28007;SDS011;15333;50.010;20.020;2022-08-19T04:15:50;43.80;;;35.60;;
28007;SDS011;15333;50.010;20.020;2022-08-19T04:18:51;44.17;;;36.05;;
28007;SDS011;15333;50.010;20.020;2022-08-19T04:21:52;45.72;;;35.05;;
28007;SDS011;15333;50.010;20.020;2022-08-19T04:24:54;47.75;;;35.47;;
28007;SDS011;15333;50.010;20.020;2022-08-19T04:27:55;46.80;;;35.42;;
28007;SDS011;15333;50.010;20.020;2022-08-19T04:30:56;47.28;;;35.08;;
28007;SDS011;15333;50.010;20.020;2022-08-19T04:33:58;43.80;;;33.88;;
28007;SDS011;15333;50.010;20.020;2022-08-19T04:37:00;41.97;;;33.92;;
28007;SDS011;15333;50.010;20.020;2022-08-19T04:40:01;39.72;;;33.22;;
28007;SDS011;15333;50.010;20.020;2022-08-19T04:43:21;38.13;;;32.63;;
28007;SDS011;15333;50.010;20.020;2022-08-19T04:46:22;36.40;;;30.60;;
28007;SDS011;15333;50.010;20.020;2022-08-19T04:49:23;39.30;;;30.55;;
28007;SDS011;15333;50.010;20.020;2022-08-19T04:52:24;34.15;;;28.08;;
28007;SDS011;15333;50.010;20.020;2022-08-19T04:55:25;36.35;;;27.08;;
28007;SDS011;15333;50.010;20.020;2022-08-19T04:58:27;32.78;;;27.33;;
28007;SDS011;15333;50.010;20.020;2022-08-19T05:01:28;33.90;;;26.95;;
28007;SDS011;15333;50.010;20.020;2022-08-19T05:04:31;34.40;;;25.42;;
28007;SDS011;15333;50.010;20.020;2022-08-19T05:07:32;28.80;;;24.73;;
28007;SDS011;15333;50.010;20.020;2022-08-19T05:10:37;29.70;;;25.27;;
28007;SDS011;15333;50.010;20.020;2022-08-19T05:13:40;36.42;;;26.00;;
28007;SDS011;15333;50.010;20.020;2022-08-19T05:16:43;34.85;;;26.98;;
28007;SDS011;15333;50.010;20.020;2022-08-19T05:19:44;28.40;;;24.50;;
28007;SDS011;15333;50.010;20.020;2022-08-19T05:23:03;35.37;;;24.43;;
28007;SDS011;15333;50.010;20.020;2022-08-19T05:26:04;36.05;;;23.75;;
28007;SDS011;15333;50.010;20.020;2022-08-19T05:29:05;34.55;;;24.10;;
28007;SDS011;15333;50.010;20.020;2022-08-19T05:32:07;28.92;;;24.02;;
28007;SDS011;15333;50.010;20.020;2022-08-19T05:35:10;28.65;;;22.80;;
28007;SDS011;15333;50.010;20.020;2022-08-19T05:38:12;30.38;;;24.48;;
28007;SDS011;15333;50.010;20.020;2022-08-19T05:41:13;31.77;;;24.55;;
28007;SDS011;15333;50.010;20.020;2022-08-19T05:44:15;33.47;;;24.80;;
28007;SDS011;15333;50.010;20.020;2022-08-19T05:47:17;34.38;;;25.40;;
28007;SDS011;15333;50.010;20.020;2022-08-19T05:50:22;39.83;;;28.20;;
28007;SDS011;15333;50.010;20.020;2022-08-19T05:53:23;31.75;;;27.10;;
28007;SDS011;15333;50.010;20.020;2022-08-19T05:56:24;34.50;;;27.08;;
28007;SDS011;15333;50.010;20.020;2022-08-19T05:59:25;35.13;;;27.60;;
28007;SDS011;15333;50.010;20.020;2022-08-19T06:02:26;32.03;;;26.02;;
28007;SDS011;15333;50.010;20.020;2022-08-19T06:05:29;28.55;;;24.70;;
28007;SDS011;15333;50.010;20.020;2022-08-19T06:08:30;31.00;;;24.08;;
28007;SDS011;15333;50.010;20.020;2022-08-19T06:11:33;32.38;;;25.55;;
28007;SDS011;15333;50.010;20.020;2022-08-19T06:14:40;40.13;;;24.83;;
28007;SDS011;15333;50.010;20.020;2022-08-19T06:17:41;30.25;;;23.45;;
28007;SDS011;15333;50.010;20.020;2022-08-19T06:20:44;32.20;;;24.17;;
28007;SDS011;15333;50.010;20.020;2022-08-19T06:23:46;30.67;;;23.70;;
28007;SDS011;15333;50.010;20.020;2022-08-19T06:26:48;30.30;;;23.98;;
28007;SDS011;15333;50.010;20.020;2022-08-19T06:29:49;29.33;;;22.90;;
28007;SDS011;15333;50.010;20.020;2022-08-19T06:32:50;30.23;;;23.35;;
28007;SDS011;15333;50.010;20.020;2022-08-19T06:35:51;28.02;;;22.70;;
28007;SDS011;15333;50.010;20.020;2022-08-19T06:38:55;31.90;;;24.05;;
28007;SDS011;15333;50.010;20.020;2022-08-19T06:41:59;28.13;;;22.98;;
28007;SDS011;15333;50.010;20.020;2022-08-19T06:45:04;25.83;;;21.52;;
28007;SDS011;15333;50.010;20.020;2022-08-19T06:48:08;24.90;;;20.13;;
28007;SDS011;15333;50.010;20.020;2022-08-19T06:51:09;27.40;;;21.02;;
28007;SDS011;15333;50.010;20.020;2022-08-19T06:54:10;23.73;;;19.70;;
28007;SDS011;15333;50.010;20.020;2022-08-19T06:57:11;30.00;;;19.77;;
28007;SDS011;15333;50.010;20.020;2022-08-19T07:00:15;23.63;;;19.85;;
28007;SDS011;15333;50.010;20.020;2022-08-19T07:03:16;30.02;;;20.20;;
28007;SDS011;15333;50.010;20.020;2022-08-19T07:06:18;24.10;;;18.75;;
28007;SDS011;15333;50.010;20.020;2022-08-19T07:09:20;28.42;;;18.83;;
28007;SDS011;15333;50.010;20.020;2022-08-19T07:12:22;21.65;;;18.30;;
28007;SDS011;15333;50.010;20.020;2022-08-19T07:15:23;26.45;;;19.88;;
28007;SDS011;15333;50.010;20.020;2022-08-19T07:18:24;20.95;;;18.75;;
28007;SDS011;15333;50.010;20.020;2022-08-19T07:21:29;29.60;;;19.27;;
28007;SDS011;15333;50.010;20.020;2022-08-19T07:24:29;22.70;;;18.00;;
28007;SDS011;15333;50.010;20.020;2022-08-19T07:27:31;25.05;;;17.55;;
28007;SDS011;15333;50.010;20.020;2022-08-19T07:30:32;25.63;;;18.55;;
28007;SDS011;15333;50.010;20.020;2022-08-19T07:33:33;23.95;;;17.92;;
28007;SDS011;15333;50.010;20.020;2022-08-19T07:36:37;19.38;;;16.70;;
28007;SDS011;15333;50.010;20.020;2022-08-19T07:39:41;28.67;;;17.63;;
28007;SDS011;15333;50.010;20.020;2022-08-19T07:42:41;25.85;;;17.92;;
28007;SDS011;15333;50.010;20.020;2022-08-19T07:45:43;27.33;;;18.17;;
28007;SDS011;15333;50.010;20.020;2022-08-19T07:48:44;27.95;;;17.75;;
28007;SDS011;15333;50.010;20.020;2022-08-19T07:51:53;22.52;;;16.88;;
28007;SDS011;15333;50.010;20.020;2022-08-19T07:54:56;26.92;;;17.58;;
28007;SDS011;15333;50.010;20.020;2022-08-19T07:58:01;23.80;;;17.10;;
28007;SDS011;15333;50.010;20.020;2022-08-19T08:01:02;26.90;;;17.50;;
28007;SDS011;15333;50.010;20.020;2022-08-19T08:04:05;22.95;;;16.88;;
28007;SDS011;15333;50.010;20.020;2022-08-19T08:07:25;23.73;;;17.17;;
28007;SDS011;15333;50.010;20.020;2022-08-19T08:10:45;22.27;;;17.88;;
28007;SDS011;15333;50.010;20.020;2022-08-19T08:13:46;23.05;;;16.65;;
28007;SDS011;15333;50.010;20.020;2022-08-19T08:16:49;24.10;;;16.17;;
28007;SDS011;15333;50.010;20.020;2022-08-19T08:19:51;24.13;;;15.68;;
28007;SDS011;15333;50.010;20.020;2022-08-19T08:22:52;22.75;;;17.48;;
28007;SDS011;15333;50.010;20.020;2022-08-19T08:26:11;21.97;;;16.23;;
28007;SDS011;15333;50.010;20.020;2022-08-19T08:29:14;20.15;;;16.05;;
28007;SDS011;15333;50.010;20.020;2022-08-19T08:32:16;24.00;;;16.42;;
28007;SDS011;15333;50.010;20.020;2022-08-19T08:35:18;22.02;;;15.93;;
28007;SDS011;15333;50.010;20.020;2022-08-19T08:38:21;19.52;;;16.13;;
28007;SDS011;15333;50.010;20.020;2022-08-19T08:41:35;18.75;;;15.82;;
28007;SDS011;15333;50.010;20.020;2022-08-19T08:44:58;19.13;;;15.77;;
28007;SDS011;15333;50.010;20.020;2022-08-19T08:48:12;23.67;;;17.20;;
28007;SDS011;15333;50.010;20.020;2022-08-19T08:51:25;22.45;;;16.42;;
28007;SDS011;15333;50.010;20.020;2022-08-19T08:54:35;20.00;;;15.68;;
28007;SDS011;15333;50.010;20.020;2022-08-19T09:00:55;22.90;;;16.17;;
28007;SDS011;15333;50.010;20.020;2022-08-19T09:03:55;22.88;;;16.58;;
28007;SDS011;15333;50.010;20.020;2022-08-19T09:17:05;23.25;;;16.48;;
28007;SDS011;15333;50.010;20.020;2022-08-19T09:23:16;18.58;;;15.38;;
28007;SDS011;15333;50.010;20.020;2022-08-19T09:26:18;19.65;;;15.23;;
28007;SDS011;15333;50.010;20.020;2022-08-19T09:29:21;24.80;;;15.07;;
28007;SDS011;15333;50.010;20.020;2022-08-19T09:32:22;22.50;;;15.07;;
28007;SDS011;15333;50.010;20.020;2022-08-19T09:35:25;25.83;;;15.35;;
28007;SDS011;15333;50.010;20.020;2022-08-19T09:38:29;19.75;;;14.88;;
28007;SDS011;15333;50.010;20.020;2022-08-19T09:41:30;18.17;;;14.75;;
28007;SDS011;15333;50.010;20.020;2022-08-19T09:44:30;24.15;;;16.15;;
28007;SDS011;15333;50.010;20.020;2022-08-19T09:47:34;19.70;;;16.02;;
28007;SDS011;15333;50.010;20.020;2022-08-19T09:50:38;21.73;;;15.82;;
28007;SDS011;15333;50.010;20.020;2022-08-19T09:53:39;21.45;;;15.35;;
28007;SDS011;15333;50.010;20.020;2022-08-19T09:56:40;19.77;;;15.50;;
28007;SDS011;15333;50.010;20.020;2022-08-19T09:59:41;22.95;;;15.20;;
28007;SDS011;15333;50.010;20.020;2022-08-19T10:02:43;20.83;;;15.45;;
28007;SDS011;15333;50.010;20.020;2022-08-19T10:05:43;20.48;;;15.55;;
28007;SDS011;15333;50.010;20.020;2022-08-19T10:08:51;19.30;;;15.57;;
28007;SDS011;15333;50.010;20.020;2022-08-19T10:11:52;18.60;;;15.73;;
28007;SDS011;15333;50.010;20.020;2022-08-19T10:14:53;16.20;;;13.88;;
28007;SDS011;15333;50.010;20.020;2022-08-19T10:17:54;18.30;;;14.43;;
28007;SDS011;15333;50.010;20.020;2022-08-19T10:21:18;19.13;;;14.52;;
28007;SDS011;15333;50.010;20.020;2022-08-19T10:24:19;17.88;;;13.68;;
28007;SDS011;15333;50.010;20.020;2022-08-19T10:27:21;18.40;;;14.27;;
28007;SDS011;15333;50.010;20.020;2022-08-19T10:30:21;16.50;;;13.55;;
28007;SDS011;15333;50.010;20.020;2022-08-19T10:33:23;23.10;;;13.32;;
28007;SDS011;15333;50.010;20.020;2022-08-19T10:36:29;20.75;;;13.30;;
28007;SDS011;15333;50.010;20.020;2022-08-19T10:39:33;18.90;;;13.43;;
28007;SDS011;15333;50.010;20.020;2022-08-19T10:42:35;18.27;;;14.18;;
28007;SDS011;15333;50.010;20.020;2022-08-19T10:45:36;15.82;;;12.27;;
28007;SDS011;15333;50.010;20.020;2022-08-19T10:48:37;18.65;;;13.35;;
28007;SDS011;15333;50.010;20.020;2022-08-19T10:51:38;16.92;;;13.05;;
28007;SDS011;15333;50.010;20.020;2022-08-19T10:55:03;14.90;;;12.23;;
28007;SDS011;15333;50.010;20.020;2022-08-19T10:58:23;15.02;;;12.60;;
28007;SDS011;15333;50.010;20.020;2022-08-19T11:01:26;15.60;;;12.30;;
28007;SDS011;15333;50.010;20.020;2022-08-19T11:04:28;16.23;;;13.10;;
28007;SDS011;15333;50.010;20.020;2022-08-19T11:07:29;15.45;;;13.20;;
28007;SDS011;15333;50.010;20.020;2022-08-19T11:10:29;20.88;;;13.38;;
28007;SDS011;15333;50.010;20.020;2022-08-19T11:13:31;22.88;;;12.63;;
28007;SDS011;15333;50.010;20.020;2022-08-19T11:16:41;20.30;;;12.95;;
28007;SDS011;15333;50.010;20.020;2022-08-19T11:19:42;14.75;;;12.55;;
28007;SDS011;15333;50.010;20.020;2022-08-19T11:22:43;15.48;;;13.07;;
28007;SDS011;15333;50.010;20.020;2022-08-19T11:25:44;23.52;;;12.32;;
28007;SDS011;15333;50.010;20.020;2022-08-19T11:28:46;18.23;;;13.23;;
28007;SDS011;15333;50.010;20.020;2022-08-19T11:31:48;16.15;;;12.50;;
28007;SDS011;15333;50.010;20.020;2022-08-19T11:34:50;15.82;;;12.82;;
28007;SDS011;15333;50.010;20.020;2022-08-19T11:37:50;16.83;;;13.35;;
28007;SDS011;15333;50.010;20.020;2022-08-19T11:40:57;16.13;;;12.63;;
28007;SDS011;15333;50.010;20.020;2022-08-19T11:44:00;15.20;;;13.05;;
28007;SDS011;15333;50.010;20.020;2022-08-19T11:47:03;13.95;;;12.45;;
28007;SDS011;15333;50.010;20.020;2022-08-19T11:50:05;15.75;;;13.35;;
28007;SDS011;15333;50.010;20.020;2022-08-19T11:53:06;19.17;;;14.07;;
28007;SDS011;15333;50.010;20.020;2022-08-19T11:56:08;16.13;;;13.77;;
28007;SDS011;15333;50.010;20.020;2022-08-19T11:59:09;15.98;;;13.98;;
28007;SDS011;15333;50.010;20.020;2022-08-19T12:02:10;15.23;;;13.25;;
28007;SDS011;15333;50.010;20.020;2022-08-19T12:05:11;17.27;;;13.07;;
28007;SDS011;15333;50.010;20.020;2022-08-19T12:08:12;19.27;;;13.05;;
28007;SDS011;15333;50.010;20.020;2022-08-19T12:11:14;18.30;;;12.45;;
28007;SDS011;15333;50.010;20.020;2022-08-19T12:14:16;15.10;;;13.57;;
28007;SDS011;15333;50.010;20.020;2022-08-19T12:17:17;14.90;;;12.38;;
28007;SDS011;15333;50.010;20.020;2022-08-19T12:20:17;16.95;;;12.20;;
28007;SDS011;15333;50.010;20.020;2022-08-19T12:23:18;15.77;;;12.63;;
28007;SDS011;15333;50.010;20.020;2022-08-19T12:26:19;13.13;;;11.18;;
28007;SDS011;15333;50.010;20.020;2022-08-19T12:29:21;13.88;;;12.10;;
28007;SDS011;15333;50.010;20.020;2022-08-19T12:32:22;13.55;;;11.30;;
28007;SDS011;15333;50.010;20.020;2022-08-19T12:35:25;13.48;;;11.30;;
28007;SDS011;15333;50.010;20.020;2022-08-19T12:38:25;13.43;;;11.23;;
28007;SDS011;15333;50.010;20.020;2022-08-19T12:41:27;13.13;;;11.80;;
28007;SDS011;15333;50.010;20.020;2022-08-19T12:44:28;15.10;;;12.07;;
28007;SDS011;15333;50.010;20.020;2022-08-19T12:47:30;12.60;;;11.10;;
28007;SDS011;15333;50.010;20.020;2022-08-19T12:50:31;13.38;;;11.82;;
28007;SDS011;15333;50.010;20.020;2022-08-19T12:53:32;14.02;;;11.45;;
28007;SDS011;15333;50.010;20.020;2022-08-19T12:56:33;13.10;;;10.50;;
28007;SDS011;15333;50.010;20.020;2022-08-19T12:59:35;18.15;;;11.25;;
28007;SDS011;15333;50.010;20.020;2022-08-19T13:02:37;14.93;;;10.85;;
28007;SDS011;15333;50.010;20.020;2022-08-19T13:05:39;12.73;;;10.57;;
28007;SDS011;15333;50.010;20.020;2022-08-19T13:08:40;12.80;;;10.85;;
28007;SDS011;15333;50.010;20.020;2022-08-19T13:11:42;14.45;;;10.98;;
28007;SDS011;15333;50.010;20.020;2022-08-19T13:14:43;11.75;;;8.95;;
28007;SDS011;15333;50.010;20.020;2022-08-19T13:17:47;12.75;;;10.10;;
28007;SDS011;15333;50.010;20.020;2022-08-19T13:20:49;16.85;;;9.40;;
28007;SDS011;15333;50.010;20.020;2022-08-19T13:23:50;14.38;;;9.50;;
28007;SDS011;15333;50.010;20.020;2022-08-19T13:26:52;13.07;;;8.90;;
28007;SDS011;15333;50.010;20.020;2022-08-19T13:29:53;10.65;;;9.55;;
28007;SDS011;15333;50.010;20.020;2022-08-19T13:33:12;11.55;;;9.88;;
28007;SDS011;15333;50.010;20.020;2022-08-19T13:36:17;10.40;;;9.40;;
28007;SDS011;15333;50.010;20.020;2022-08-19T13:39:17;12.75;;;9.88;;
28007;SDS011;15333;50.010;20.020;2022-08-19T13:42:19;16.15;;;10.80;;
28007;SDS011;15333;50.010;20.020;2022-08-19T13:45:21;11.10;;;9.50;;
28007;SDS011;15333;50.010;20.020;2022-08-19T13:48:25;14.20;;;9.50;;
28007;SDS011;15333;50.010;20.020;2022-08-19T13:51:27;11.98;;;9.45;;
28007;SDS011;15333;50.010;20.020;2022-08-19T13:54:27;13.10;;;9.30;;
28007;SDS011;15333;50.010;20.020;2022-08-19T13:57:28;13.38;;;9.77;;
28007;SDS011;15333;50.010;20.020;2022-08-19T14:00:32;12.63;;;9.93;;
28007;SDS011;15333;50.010;20.020;2022-08-19T14:03:36;13.10;;;10.07;;
28007;SDS011;15333;50.010;20.020;2022-08-19T14:06:37;12.35;;;9.18;;
28007;SDS011;15333;50.010;20.020;2022-08-19T14:09:38;10.57;;;9.57;;
28007;SDS011;15333;50.010;20.020;2022-08-19T14:12:39;12.45;;;10.00;;
28007;SDS011;15333;50.010;20.020;2022-08-19T14:15:40;12.73;;;10.40;;
28007;SDS011;15333;50.010;20.020;2022-08-19T14:18:41;11.93;;;10.27;;
28007;SDS011;15333;50.010;20.020;2022-08-19T14:21:42;14.75;;;10.02;;
28007;SDS011;15333;50.010;20.020;2022-08-19T14:24:43;18.13;;;10.18;;
28007;SDS011;15333;50.010;20.020;2022-08-19T14:27:44;12.50;;;9.05;;
28007;SDS011;15333;50.010;20.020;2022-08-19T14:30:46;11.43;;;8.50;;
28007;SDS011;15333;50.010;20.020;2022-08-19T14:33:47;12.48;;;8.73;;
28007;SDS011;15333;50.010;20.020;2022-08-19T14:36:48;11.70;;;9.35;;
28007;SDS011;15333;50.010;20.020;2022-08-19T14:39:49;10.93;;;9.30;;
28007;SDS011;15333;50.010;20.020;2022-08-19T14:42:50;14.93;;;9.32;;
28007;SDS011;15333;50.010;20.020;2022-08-19T14:45:51;10.57;;;9.48;;
28007;SDS011;15333;50.010;20.020;2022-08-19T14:48:52;10.30;;;8.65;;
28007;SDS011;15333;50.010;20.020;2022-08-19T14:51:54;12.68;;;9.75;;
28007;SDS011;15333;50.010;20.020;2022-08-19T14:54:55;11.20;;;9.55;;
28007;SDS011;15333;50.010;20.020;2022-08-19T14:57:56;14.48;;;9.05;;
28007;SDS011;15333;50.010;20.020;2022-08-19T15:00:58;11.05;;;8.60;;
28007;SDS011;15333;50.010;20.020;2022-08-19T15:04:00;12.15;;;9.63;;
28007;SDS011;15333;50.010;20.020;2022-08-19T15:07:01;11.80;;;9.02;;
28007;SDS011;15333;50.010;20.020;2022-08-19T15:10:05;9.90;;;8.85;;
28007;SDS011;15333;50.010;20.020;2022-08-19T15:13:07;13.48;;;9.27;;
28007;SDS011;15333;50.010;20.020;2022-08-19T15:16:08;15.23;;;9.75;;
28007;SDS011;15333;50.010;20.020;2022-08-19T15:19:09;13.23;;;9.40;;
28007;SDS011;15333;50.010;20.020;2022-08-19T15:22:10;12.73;;;9.15;;
28007;SDS011;15333;50.010;20.020;2022-08-19T15:25:12;14.20;;;9.30;;
28007;SDS011;15333;50.010;20.020;2022-08-19T15:28:14;13.68;;;9.23;;
28007;SDS011;15333;50.010;20.020;2022-08-19T15:31:18;12.82;;;9.93;;
28007;SDS011;15333;50.010;20.020;2022-08-19T15:34:23;14.85;;;9.93;;
28007;SDS011;15333;50.010;20.020;2022-08-19T15:37:25;15.63;;;9.98;;
28007;SDS011;15333;50.010;20.020;2022-08-19T15:40:26;11.55;;;9.85;;
28007;SDS011;15333;50.010;20.020;2022-08-19T15:43:27;11.32;;;9.55;;
28007;SDS011;15333;50.010;20.020;2022-08-19T15:46:29;16.25;;;10.00;;
28007;SDS011;15333;50.010;20.020;2022-08-19T15:49:32;16.75;;;10.70;;
28007;SDS011;15333;50.010;20.020;2022-08-19T15:52:33;13.70;;;10.27;;
28007;SDS011;15333;50.010;20.020;2022-08-19T15:55:36;12.88;;;10.50;;
28007;SDS011;15333;50.010;20.020;2022-08-19T15:58:42;11.38;;;10.05;;
28007;SDS011;15333;50.010;20.020;2022-08-19T16:02:02;11.10;;;9.88;;
28007;SDS011;15333;50.010;20.020;2022-08-19T16:08:43;12.00;;;10.35;;
28007;SDS011;15333;50.010;20.020;2022-08-19T16:11:44;11.15;;;10.00;;
28007;SDS011;15333;50.010;20.020;2022-08-19T16:14:47;14.27;;;10.23;;
28007;SDS011;15333;50.010;20.020;2022-08-19T16:17:48;14.38;;;10.70;;
28007;SDS011;15333;50.010;20.020;2022-08-19T16:20:49;14.02;;;10.10;;
28007;SDS011;15333;50.010;20.020;2022-08-19T16:23:50;13.02;;;11.13;;
28007;SDS011;15333;50.010;20.020;2022-08-19T16:26:51;12.38;;;10.85;;
28007;SDS011;15333;50.010;20.020;2022-08-19T16:29:53;12.18;;;10.65;;
28007;SDS011;15333;50.010;20.020;2022-08-19T16:32:54;13.82;;;10.70;;
28007;SDS011;15333;50.010;20.020;2022-08-19T16:35:55;14.40;;;11.15;;
28007;SDS011;15333;50.010;20.020;2022-08-19T16:38:56;16.98;;;10.85;;
28007;SDS011;15333;50.010;20.020;2022-08-19T16:41:57;13.98;;;11.40;;
28007;SDS011;15333;50.010;20.020;2022-08-19T16:44:59;14.32;;;11.55;;
28007;SDS011;15333;50.010;20.020;2022-08-19T16:48:00;17.08;;;12.13;;
28007;SDS011;15333;50.010;20.020;2022-08-19T16:51:01;13.65;;;11.07;;
28007;SDS011;15333;50.010;20.020;2022-08-19T16:54:05;13.65;;;11.57;;
28007;SDS011;15333;50.010;20.020;2022-08-19T16:57:06;14.77;;;11.07;;
28007;SDS011;15333;50.010;20.020;2022-08-19T17:00:07;13.75;;;11.30;;
28007;SDS011;15333;50.010;20.020;2022-08-19T17:03:12;19.50;;;11.80;;
28007;SDS011;15333;50.010;20.020;2022-08-19T17:06:14;14.13;;;11.30;;
28007;SDS011;15333;50.010;20.020;2022-08-19T17:09:22;17.60;;;11.67;;
28007;SDS011;15333;50.010;20.020;2022-08-19T17:12:23;16.60;;;11.38;;
28007;SDS011;15333;50.010;20.020;2022-08-19T17:15:25;14.00;;;11.90;;
28007;SDS011;15333;50.010;20.020;2022-08-19T17:18:25;17.75;;;12.25;;
28007;SDS011;15333;50.010;20.020;2022-08-19T17:21:28;20.88;;;13.32;;
28007;SDS011;15333;50.010;20.020;2022-08-19T17:24:31;15.70;;;12.63;;
28007;SDS011;15333;50.010;20.020;2022-08-19T17:27:32;18.83;;;12.68;;
28007;SDS011;15333;50.010;20.020;2022-08-19T17:30:33;16.88;;;12.52;;
28007;SDS011;15333;50.010;20.020;2022-08-19T17:33:34;15.88;;;13.13;;
28007;SDS011;15333;50.010;20.020;2022-08-19T17:36:35;16.98;;;13.75;;
28007;SDS011;15333;50.010;20.020;2022-08-19T17:39:37;14.75;;;13.13;;
28007;SDS011;15333;50.010;20.020;2022-08-19T17:42:38;19.98;;;13.50;;
28007;SDS011;15333;50.010;20.020;2022-08-19T17:45:43;19.77;;;13.55;;
28007;SDS011;15333;50.010;20.020;2022-08-19T17:48:46;17.90;;;13.27;;
28007;SDS011;15333;50.010;20.020;2022-08-19T17:51:50;17.67;;;13.18;;
28007;SDS011;15333;50.010;20.020;2022-08-19T17:54:51;16.92;;;13.95;;